sensor_id;sensor_type;location;lat;lon;timestamp;P1;durP1;ratioP1;P2;durP2;ratioP2
6101;SDS011;3081;50.584;7.032;2023-04-01T00:01:29;23.80;;;14.50;;
6101;SDS011;3081;50.584;7.032;2023-04-01T00:03:56;12.37;;;6.33;;
6101;SDS011;3081;50.584;7.032;2023-04-01T00:06:24;20.27;;;9.47;;
6101;SDS011;3081;50.584;7.032;2023-04-01T00:08:51;18.70;;;12.20;;
6101;SDS011;3081;50.584;7.032;2023-04-01T00:11:19;10.87;;;6.70;;
6101;SDS011;3081;50.584;7.032;2023-04-01T00:13:46;24.50;;;14.40;;
6101;SDS011;3081;50.584;7.032;2023-04-01T00:16:14;12.20;;;6.03;;
6101;SDS011;3081;50.584;7.032;2023-04-01T00:18:41;28.40;;;12.90;;
6101;SDS011;3081;50.584;7.032;2023-04-01T00:21:08;57.03;;;25.53;;
6101;SDS011;3081;50.584;7.032;2023-04-01T00:23:35;61.37;;;28.93;;
6101;SDS011;3081;50.584;7.032;2023-04-01T00:26:02;23.40;;;12.20;;
6101;SDS011;3081;50.584;7.032;2023-04-01T00:28:31;41.30;;;20.73;;
6101;SDS011;3081;50.584;7.032;2023-04-01T00:31:03;44.13;;;22.13;;
6101;SDS011;3081;50.584;7.032;2023-04-01T00:33:31;43.30;;;22.20;;
6101;SDS011;3081;50.584;7.032;2023-04-01T00:36:05;47.57;;;24.60;;
6101;SDS011;3081;50.584;7.032;2023-04-01T00:38:33;47.13;;;23.60;;
6101;SDS011;3081;50.584;7.032;2023-04-01T00:41:00;40.17;;;21.43;;
6101;SDS011;3081;50.584;7.032;2023-04-01T00:43:27;28.27;;;16.17;;
6101;SDS011;3081;50.584;7.032;2023-04-01T00:45:55;16.47;;;8.23;;
6101;SDS011;3081;50.584;7.032;2023-04-01T00:48:23;17.87;;;6.80;;
6101;SDS011;3081;50.584;7.032;2023-04-01T00:50:56;65.93;;;32.60;;
6101;SDS011;3081;50.584;7.032;2023-04-01T00:53:26;8.70;;;4.07;;
6101;SDS011;3081;50.584;7.032;2023-04-01T00:55:56;15.17;;;7.27;;
6101;SDS011;3081;50.584;7.032;2023-04-01T00:58:27;29.57;;;15.87;;
6101;SDS011;3081;50.584;7.032;2023-04-01T01:00:58;19.43;;;8.30;;
6101;SDS011;3081;50.584;7.032;2023-04-01T01:03:26;21.30;;;10.70;;
6101;SDS011;3081;50.584;7.032;2023-04-01T01:06:00;30.00;;;16.40;;
6101;SDS011;3081;50.584;7.032;2023-04-01T01:08:56;24.20;;;11.90;;
6101;SDS011;3081;50.584;7.032;2023-04-01T01:11:37;26.67;;;13.83;;
6101;SDS011;3081;50.584;7.032;2023-04-01T01:14:09;16.40;;;8.47;;
6101;SDS011;3081;50.584;7.032;2023-04-01T01:16:44;25.67;;;13.20;;
6101;SDS011;3081;50.584;7.032;2023-04-01T01:19:19;16.47;;;9.27;;
6101;SDS011;3081;50.584;7.032;2023-04-01T01:22:15;13.20;;;6.50;;
6101;SDS011;3081;50.584;7.032;2023-04-01T01:24:58;11.13;;;5.57;;
6101;SDS011;3081;50.584;7.032;2023-04-01T01:27:37;6.43;;;2.20;;
6101;SDS011;3081;50.584;7.032;2023-04-01T01:30:12;9.43;;;3.60;;
6101;SDS011;3081;50.584;7.032;2023-04-01T01:33:01;10.43;;;4.80;;
6101;SDS011;3081;50.584;7.032;2023-04-01T01:35:40;6.03;;;2.80;;
6101;SDS011;3081;50.584;7.032;2023-04-01T01:38:11;3.30;;;0.97;;
6101;SDS011;3081;50.584;7.032;2023-04-01T01:40:42;7.73;;;3.30;;
6101;SDS011;3081;50.584;7.032;2023-04-01T01:43:12;4.53;;;1.90;;
6101;SDS011;3081;50.584;7.032;2023-04-01T01:45:44;2.87;;;0.77;;
6101;SDS011;3081;50.584;7.032;2023-04-01T01:48:14;6.40;;;1.87;;
6101;SDS011;3081;50.584;7.032;2023-04-01T01:50:45;3.73;;;0.90;;
6101;SDS011;3081;50.584;7.032;2023-04-01T01:53:13;3.70;;;0.97;;
6101;SDS011;3081;50.584;7.032;2023-04-01T01:55:41;2.10;;;0.73;;
6101;SDS011;3081;50.584;7.032;2023-04-01T01:58:11;4.43;;;0.50;;
6101;SDS011;3081;50.584;7.032;2023-04-01T02:00:43;2.00;;;0.50;;
6101;SDS011;3081;50.584;7.032;2023-04-01T02:03:12;3.23;;;0.73;;
6101;SDS011;3081;50.584;7.032;2023-04-01T02:05:41;3.40;;;0.90;;
6101;SDS011;3081;50.584;7.032;2023-04-01T02:08:12;2.70;;;0.80;;
6101;SDS011;3081;50.584;7.032;2023-04-01T02:10:42;3.40;;;0.90;;
6101;SDS011;3081;50.584;7.032;2023-04-01T02:13:16;2.77;;;0.70;;
6101;SDS011;3081;50.584;7.032;2023-04-01T02:15:48;4.30;;;0.83;;
6101;SDS011;3081;50.584;7.032;2023-04-01T02:18:20;2.40;;;0.60;;
6101;SDS011;3081;50.584;7.032;2023-04-01T02:20:48;3.87;;;0.73;;
6101;SDS011;3081;50.584;7.032;2023-04-01T02:23:17;4.50;;;1.00;;
6101;SDS011;3081;50.584;7.032;2023-04-01T02:25:44;2.70;;;0.80;;
6101;SDS011;3081;50.584;7.032;2023-04-01T02:28:12;2.83;;;0.60;;
6101;SDS011;3081;50.584;7.032;2023-04-01T02:30:44;2.00;;;0.50;;
6101;SDS011;3081;50.584;7.032;2023-04-01T02:33:13;3.07;;;0.70;;
6101;SDS011;3081;50.584;7.032;2023-04-01T02:35:40;4.23;;;0.63;;
6101;SDS011;3081;50.584;7.032;2023-04-01T02:38:07;2.60;;;0.70;;
6101;SDS011;3081;50.584;7.032;2023-04-01T02:40:43;1.90;;;0.50;;
6101;SDS011;3081;50.584;7.032;2023-04-01T02:43:11;5.70;;;0.90;;
6101;SDS011;3081;50.584;7.032;2023-04-01T02:45:38;1.87;;;0.50;;
6101;SDS011;3081;50.584;7.032;2023-04-01T02:48:05;2.00;;;0.50;;
6101;SDS011;3081;50.584;7.032;2023-04-01T02:50:32;2.70;;;0.60;;
6101;SDS011;3081;50.584;7.032;2023-04-01T02:52:59;2.00;;;0.60;;
6101;SDS011;3081;50.584;7.032;2023-04-01T02:55:28;2.53;;;0.50;;
6101;SDS011;3081;50.584;7.032;2023-04-01T02:57:57;5.67;;;1.03;;
6101;SDS011;3081;50.584;7.032;2023-04-01T03:00:24;2.30;;;0.70;;
6101;SDS011;3081;50.584;7.032;2023-04-01T03:02:51;4.23;;;0.80;;
6101;SDS011;3081;50.584;7.032;2023-04-01T03:05:18;2.90;;;0.80;;
6101;SDS011;3081;50.584;7.032;2023-04-01T03:07:46;1.97;;;0.53;;
6101;SDS011;3081;50.584;7.032;2023-04-01T03:10:13;3.27;;;0.80;;
6101;SDS011;3081;50.584;7.032;2023-04-01T03:12:40;2.10;;;0.60;;
6101;SDS011;3081;50.584;7.032;2023-04-01T03:15:10;2.40;;;0.70;;
6101;SDS011;3081;50.584;7.032;2023-04-01T03:17:39;1.80;;;0.50;;
6101;SDS011;3081;50.584;7.032;2023-04-01T03:20:07;2.10;;;0.60;;
6101;SDS011;3081;50.584;7.032;2023-04-01T03:22:35;2.83;;;0.50;;
6101;SDS011;3081;50.584;7.032;2023-04-01T03:25:03;2.47;;;0.43;;
6101;SDS011;3081;50.584;7.032;2023-04-01T03:27:32;1.80;;;0.40;;
6101;SDS011;3081;50.584;7.032;2023-04-01T03:30:00;4.93;;;0.53;;
6101;SDS011;3081;50.584;7.032;2023-04-01T03:32:28;1.90;;;0.50;;
6101;SDS011;3081;50.584;7.032;2023-04-01T03:34:55;2.13;;;0.50;;
6101;SDS011;3081;50.584;7.032;2023-04-01T03:37:22;1.90;;;0.60;;
6101;SDS011;3081;50.584;7.032;2023-04-01T03:39:49;1.90;;;0.50;;
6101;SDS011;3081;50.584;7.032;2023-04-01T03:42:16;2.20;;;0.60;;
6101;SDS011;3081;50.584;7.032;2023-04-01T03:44:43;2.33;;;0.50;;
6101;SDS011;3081;50.584;7.032;2023-04-01T03:47:10;3.10;;;0.50;;
6101;SDS011;3081;50.584;7.032;2023-04-01T03:49:38;2.00;;;0.50;;
6101;SDS011;3081;50.584;7.032;2023-04-01T03:52:07;2.00;;;0.50;;
6101;SDS011;3081;50.584;7.032;2023-04-01T03:54:36;3.70;;;0.60;;
6101;SDS011;3081;50.584;7.032;2023-04-01T03:57:03;1.90;;;0.50;;
6101;SDS011;3081;50.584;7.032;2023-04-01T03:59:30;1.83;;;0.50;;
6101;SDS011;3081;50.584;7.032;2023-04-01T04:01:57;2.53;;;0.60;;
6101;SDS011;3081;50.584;7.032;2023-04-01T04:04:24;2.10;;;0.50;;
6101;SDS011;3081;50.584;7.032;2023-04-01T04:06:53;3.13;;;0.50;;
6101;SDS011;3081;50.584;7.032;2023-04-01T04:09:20;1.80;;;0.40;;
6101;SDS011;3081;50.584;7.032;2023-04-01T04:11:47;1.80;;;0.40;;
6101;SDS011;3081;50.584;7.032;2023-04-01T04:14:14;1.77;;;0.50;;
6101;SDS011;3081;50.584;7.032;2023-04-01T04:16:41;2.10;;;0.60;;
6101;SDS011;3081;50.584;7.032;2023-04-01T04:19:07;2.40;;;0.50;;
6101;SDS011;3081;50.584;7.032;2023-04-01T04:21:34;2.03;;;0.60;;
6101;SDS011;3081;50.584;7.032;2023-04-01T04:24:03;1.80;;;0.40;;
6101;SDS011;3081;50.584;7.032;2023-04-01T04:26:30;1.93;;;0.50;;
6101;SDS011;3081;50.584;7.032;2023-04-01T04:28:57;10.00;;;0.50;;
6101;SDS011;3081;50.584;7.032;2023-04-01T04:31:24;1.90;;;0.50;;
6101;SDS011;3081;50.584;7.032;2023-04-01T04:33:52;1.80;;;0.50;;
6101;SDS011;3081;50.584;7.032;2023-04-01T04:36:20;1.90;;;0.50;;
6101;SDS011;3081;50.584;7.032;2023-04-01T04:38:47;1.70;;;0.50;;
6101;SDS011;3081;50.584;7.032;2023-04-01T04:41:16;1.70;;;0.40;;
6101;SDS011;3081;50.584;7.032;2023-04-01T04:43:48;2.40;;;0.53;;
6101;SDS011;3081;50.584;7.032;2023-04-01T04:46:17;1.80;;;0.50;;
6101;SDS011;3081;50.584;7.032;2023-04-01T04:48:44;1.70;;;0.50;;
6101;SDS011;3081;50.584;7.032;2023-04-01T04:51:15;3.10;;;0.50;;
6101;SDS011;3081;50.584;7.032;2023-04-01T04:53:42;1.80;;;0.50;;
6101;SDS011;3081;50.584;7.032;2023-04-01T04:56:09;2.20;;;0.50;;
6101;SDS011;3081;50.584;7.032;2023-04-01T04:58:38;1.60;;;0.40;;
6101;SDS011;3081;50.584;7.032;2023-04-01T05:01:06;1.83;;;0.40;;
6101;SDS011;3081;50.584;7.032;2023-04-01T05:03:34;2.77;;;0.50;;
6101;SDS011;3081;50.584;7.032;2023-04-01T05:06:01;2.53;;;0.90;;
6101;SDS011;3081;50.584;7.032;2023-04-01T05:08:28;1.80;;;0.50;;
6101;SDS011;3081;50.584;7.032;2023-04-01T05:10:55;2.10;;;0.53;;
6101;SDS011;3081;50.584;7.032;2023-04-01T05:13:22;1.70;;;0.50;;
6101;SDS011;3081;50.584;7.032;2023-04-01T05:15:50;1.80;;;0.40;;
6101;SDS011;3081;50.584;7.032;2023-04-01T05:18:17;1.63;;;0.40;;
6101;SDS011;3081;50.584;7.032;2023-04-01T05:20:47;1.60;;;0.40;;
6101;SDS011;3081;50.584;7.032;2023-04-01T05:23:15;1.80;;;0.50;;
6101;SDS011;3081;50.584;7.032;2023-04-01T05:25:43;1.80;;;0.50;;
6101;SDS011;3081;50.584;7.032;2023-04-01T05:28:11;1.90;;;0.50;;
6101;SDS011;3081;50.584;7.032;2023-04-01T05:30:39;1.70;;;0.50;;
6101;SDS011;3081;50.584;7.032;2023-04-01T05:33:08;1.90;;;0.50;;
6101;SDS011;3081;50.584;7.032;2023-04-01T05:35:36;1.60;;;0.40;;
6101;SDS011;3081;50.584;7.032;2023-04-01T05:38:03;3.17;;;0.90;;
6101;SDS011;3081;50.584;7.032;2023-04-01T05:40:30;2.60;;;0.50;;
6101;SDS011;3081;50.584;7.032;2023-04-01T05:42:58;1.90;;;0.40;;
6101;SDS011;3081;50.584;7.032;2023-04-01T05:45:25;2.83;;;0.50;;
6101;SDS011;3081;50.584;7.032;2023-04-01T05:47:52;1.70;;;0.40;;
6101;SDS011;3081;50.584;7.032;2023-04-01T05:50:22;2.03;;;0.60;;
6101;SDS011;3081;50.584;7.032;2023-04-01T05:52:49;2.00;;;0.50;;
6101;SDS011;3081;50.584;7.032;2023-04-01T05:55:16;2.10;;;0.40;;
6101;SDS011;3081;50.584;7.032;2023-04-01T05:57:44;1.90;;;0.43;;
6101;SDS011;3081;50.584;7.032;2023-04-01T06:00:12;1.70;;;0.40;;
6101;SDS011;3081;50.584;7.032;2023-04-01T06:02:40;1.80;;;0.50;;
6101;SDS011;3081;50.584;7.032;2023-04-01T06:05:12;2.00;;;0.60;;
6101;SDS011;3081;50.584;7.032;2023-04-01T06:07:44;2.10;;;0.50;;
6101;SDS011;3081;50.584;7.032;2023-04-01T06:10:15;1.70;;;0.40;;
6101;SDS011;3081;50.584;7.032;2023-04-01T06:12:45;2.00;;;0.50;;
6101;SDS011;3081;50.584;7.032;2023-04-01T06:15:25;1.80;;;0.47;;
6101;SDS011;3081;50.584;7.032;2023-04-01T06:20:59;2.00;;;0.50;;
6101;SDS011;3081;50.584;7.032;2023-04-01T06:23:40;1.90;;;0.50;;
6101;SDS011;3081;50.584;7.032;2023-04-01T06:26:21;2.37;;;0.47;;
6101;SDS011;3081;50.584;7.032;2023-04-01T06:29:05;2.20;;;0.60;;
6101;SDS011;3081;50.584;7.032;2023-04-01T06:32:07;1.80;;;0.40;;
6101;SDS011;3081;50.584;7.032;2023-04-01T06:34:54;1.90;;;0.40;;
6101;SDS011;3081;50.584;7.032;2023-04-01T06:37:55;2.00;;;0.40;;
6101;SDS011;3081;50.584;7.032;2023-04-01T06:40:40;2.43;;;0.50;;
6101;SDS011;3081;50.584;7.032;2023-04-01T06:43:20;2.00;;;0.40;;
6101;SDS011;3081;50.584;7.032;2023-04-01T06:45:57;2.53;;;0.50;;
6101;SDS011;3081;50.584;7.032;2023-04-01T06:48:40;1.90;;;0.40;;
6101;SDS011;3081;50.584;7.032;2023-04-01T06:51:18;2.37;;;0.40;;
6101;SDS011;3081;50.584;7.032;2023-04-01T06:53:53;2.10;;;0.57;;
6101;SDS011;3081;50.584;7.032;2023-04-01T06:56:27;1.90;;;0.40;;
6101;SDS011;3081;50.584;7.032;2023-04-01T06:58:56;2.10;;;0.50;;
6101;SDS011;3081;50.584;7.032;2023-04-01T07:01:29;2.10;;;0.40;;
6101;SDS011;3081;50.584;7.032;2023-04-01T07:04:02;2.47;;;0.40;;
6101;SDS011;3081;50.584;7.032;2023-04-01T07:06:35;2.60;;;0.40;;
6101;SDS011;3081;50.584;7.032;2023-04-01T07:09:05;2.40;;;0.40;;
6101;SDS011;3081;50.584;7.032;2023-04-01T07:11:38;2.47;;;0.50;;
6101;SDS011;3081;50.584;7.032;2023-04-01T07:14:06;2.80;;;0.60;;
6101;SDS011;3081;50.584;7.032;2023-04-01T07:16:43;2.60;;;0.50;;
6101;SDS011;3081;50.584;7.032;2023-04-01T07:19:15;3.57;;;0.50;;
6101;SDS011;3081;50.584;7.032;2023-04-01T07:21:47;2.80;;;0.50;;
6101;SDS011;3081;50.584;7.032;2023-04-01T07:24:21;2.80;;;0.50;;
6101;SDS011;3081;50.584;7.032;2023-04-01T07:26:54;2.70;;;0.40;;
6101;SDS011;3081;50.584;7.032;2023-04-01T07:29:22;2.90;;;0.50;;
6101;SDS011;3081;50.584;7.032;2023-04-01T07:32:06;2.67;;;0.40;;
6101;SDS011;3081;50.584;7.032;2023-04-01T07:34:44;2.50;;;0.43;;
6101;SDS011;3081;50.584;7.032;2023-04-01T07:37:19;3.07;;;0.60;;
6101;SDS011;3081;50.584;7.032;2023-04-01T07:39:53;3.23;;;0.60;;
6101;SDS011;3081;50.584;7.032;2023-04-01T07:42:34;5.90;;;2.53;;
6101;SDS011;3081;50.584;7.032;2023-04-01T07:45:08;7.93;;;2.90;;
6101;SDS011;3081;50.584;7.032;2023-04-01T07:47:50;7.57;;;3.50;;
6101;SDS011;3081;50.584;7.032;2023-04-01T07:50:26;4.07;;;1.53;;
6101;SDS011;3081;50.584;7.032;2023-04-01T07:52:58;7.00;;;5.07;;
6101;SDS011;3081;50.584;7.032;2023-04-01T07:55:33;5.70;;;2.60;;
6101;SDS011;3081;50.584;7.032;2023-04-01T07:58:10;5.03;;;1.90;;
6101;SDS011;3081;50.584;7.032;2023-04-01T08:00:45;5.20;;;2.30;;
6101;SDS011;3081;50.584;7.032;2023-04-01T08:06:09;4.80;;;1.97;;
6101;SDS011;3081;50.584;7.032;2023-04-01T08:08:45;2.90;;;0.70;;
6101;SDS011;3081;50.584;7.032;2023-04-01T08:11:21;7.13;;;3.73;;
6101;SDS011;3081;50.584;7.032;2023-04-01T08:14:00;5.53;;;2.30;;
6101;SDS011;3081;50.584;7.032;2023-04-01T08:16:35;7.20;;;3.43;;
6101;SDS011;3081;50.584;7.032;2023-04-01T08:19:10;5.30;;;2.07;;
6101;SDS011;3081;50.584;7.032;2023-04-01T08:21:48;7.30;;;3.60;;
6101;SDS011;3081;50.584;7.032;2023-04-01T08:24:20;6.10;;;2.40;;
6101;SDS011;3081;50.584;7.032;2023-04-01T08:26:51;9.53;;;4.50;;
6101;SDS011;3081;50.584;7.032;2023-04-01T08:29:24;6.20;;;2.20;;
6101;SDS011;3081;50.584;7.032;2023-04-01T08:31:58;12.23;;;5.63;;
6101;SDS011;3081;50.584;7.032;2023-04-01T08:34:30;7.57;;;2.40;;
6101;SDS011;3081;50.584;7.032;2023-04-01T08:37:02;4.30;;;0.87;;
6101;SDS011;3081;50.584;7.032;2023-04-01T08:39:34;3.60;;;0.70;;
6101;SDS011;3081;50.584;7.032;2023-04-01T08:47:54;3.87;;;0.67;;
6101;SDS011;3081;50.584;7.032;2023-04-01T08:50:50;4.13;;;0.87;;
6101;SDS011;3081;50.584;7.032;2023-04-01T08:53:34;4.00;;;0.60;;
6101;SDS011;3081;50.584;7.032;2023-04-01T08:56:14;4.47;;;0.77;;
6101;SDS011;3081;50.584;7.032;2023-04-01T08:58:57;5.00;;;0.60;;
6101;SDS011;3081;50.584;7.032;2023-04-01T09:01:49;4.40;;;0.50;;
6101;SDS011;3081;50.584;7.032;2023-04-01T09:04:33;5.13;;;0.80;;
6101;SDS011;3081;50.584;7.032;2023-04-01T09:07:20;5.00;;;0.60;;
6101;SDS011;3081;50.584;7.032;2023-04-01T09:13:10;4.90;;;0.47;;
6101;SDS011;3081;50.584;7.032;2023-04-01T09:16:07;5.80;;;0.60;;
6101;SDS011;3081;50.584;7.032;2023-04-01T09:21:51;5.00;;;0.57;;
6101;SDS011;3081;50.584;7.032;2023-04-01T09:24:52;5.00;;;0.50;;
6101;SDS011;3081;50.584;7.032;2023-04-01T09:27:51;4.87;;;0.50;;
6101;SDS011;3081;50.584;7.032;2023-04-01T09:30:32;5.40;;;0.60;;
6101;SDS011;3081;50.584;7.032;2023-04-01T09:33:16;5.10;;;0.57;;
6101;SDS011;3081;50.584;7.032;2023-04-01T09:36:11;7.77;;;0.60;;
6101;SDS011;3081;50.584;7.032;2023-04-01T09:38:49;4.97;;;0.50;;
6101;SDS011;3081;50.584;7.032;2023-04-01T09:41:28;4.90;;;0.50;;
6101;SDS011;3081;50.584;7.032;2023-04-01T09:44:00;4.97;;;0.53;;
6101;SDS011;3081;50.584;7.032;2023-04-01T09:46:36;4.83;;;0.50;;
6101;SDS011;3081;50.584;7.032;2023-04-01T09:49:17;5.10;;;0.60;;
6101;SDS011;3081;50.584;7.032;2023-04-01T09:52:04;5.30;;;0.77;;
6101;SDS011;3081;50.584;7.032;2023-04-01T09:54:56;5.10;;;0.60;;
6101;SDS011;3081;50.584;7.032;2023-04-01T10:01:00;5.63;;;0.50;;
6101;SDS011;3081;50.584;7.032;2023-04-01T10:06:51;4.50;;;0.50;;
6101;SDS011;3081;50.584;7.032;2023-04-01T10:09:51;4.50;;;0.60;;
6101;SDS011;3081;50.584;7.032;2023-04-01T10:21:46;4.93;;;0.60;;
6101;SDS011;3081;50.584;7.032;2023-04-01T10:27:48;3.90;;;0.60;;
6101;SDS011;3081;50.584;7.032;2023-04-01T10:30:23;3.90;;;0.70;;
6101;SDS011;3081;50.584;7.032;2023-04-01T10:33:38;3.40;;;0.50;;
6101;SDS011;3081;50.584;7.032;2023-04-01T10:36:41;3.53;;;0.50;;
6101;SDS011;3081;50.584;7.032;2023-04-01T10:42:41;3.97;;;0.43;;
6101;SDS011;3081;50.584;7.032;2023-04-01T10:45:45;4.77;;;0.60;;
6101;SDS011;3081;50.584;7.032;2023-04-01T10:54:40;5.30;;;0.60;;
6101;SDS011;3081;50.584;7.032;2023-04-01T10:57:34;5.37;;;0.50;;
6101;SDS011;3081;50.584;7.032;2023-04-01T11:00:28;5.30;;;0.60;;
6101;SDS011;3081;50.584;7.032;2023-04-01T11:18:49;5.20;;;0.50;;
6101;SDS011;3081;50.584;7.032;2023-04-01T11:21:46;5.20;;;0.53;;
6101;SDS011;3081;50.584;7.032;2023-04-01T11:24:29;5.30;;;0.50;;
6101;SDS011;3081;50.584;7.032;2023-04-01T11:27:10;5.33;;;0.50;;
6101;SDS011;3081;50.584;7.032;2023-04-01T11:29:56;5.60;;;0.60;;
6101;SDS011;3081;50.584;7.032;2023-04-01T11:32:39;5.30;;;0.50;;
6101;SDS011;3081;50.584;7.032;2023-04-01T11:38:19;5.20;;;0.50;;
6101;SDS011;3081;50.584;7.032;2023-04-01T11:40:58;5.20;;;0.60;;
6101;SDS011;3081;50.584;7.032;2023-04-01T11:43:34;5.30;;;0.50;;
6101;SDS011;3081;50.584;7.032;2023-04-01T11:46:10;5.20;;;0.43;;
6101;SDS011;3081;50.584;7.032;2023-04-01T11:48:40;5.30;;;0.50;;
6101;SDS011;3081;50.584;7.032;2023-04-01T11:51:21;5.37;;;0.50;;
6101;SDS011;3081;50.584;7.032;2023-04-01T11:54:11;5.40;;;0.50;;
6101;SDS011;3081;50.584;7.032;2023-04-01T11:56:58;5.70;;;0.60;;
6101;SDS011;3081;50.584;7.032;2023-04-01T11:59:43;6.10;;;0.60;;
6101;SDS011;3081;50.584;7.032;2023-04-01T12:02:27;5.53;;;0.57;;
6101;SDS011;3081;50.584;7.032;2023-04-01T12:05:07;5.40;;;0.50;;
6101;SDS011;3081;50.584;7.032;2023-04-01T12:08:06;5.50;;;0.60;;
6101;SDS011;3081;50.584;7.032;2023-04-01T12:10:40;5.50;;;0.50;;
6101;SDS011;3081;50.584;7.032;2023-04-01T12:13:16;5.23;;;0.60;;
6101;SDS011;3081;50.584;7.032;2023-04-01T12:16:13;5.20;;;0.50;;
6101;SDS011;3081;50.584;7.032;2023-04-01T12:18:54;5.00;;;0.50;;
6101;SDS011;3081;50.584;7.032;2023-04-01T12:21:26;4.70;;;0.60;;
6101;SDS011;3081;50.584;7.032;2023-04-01T12:24:03;4.90;;;0.60;;
6101;SDS011;3081;50.584;7.032;2023-04-01T12:26:52;3.80;;;0.50;;
6101;SDS011;3081;50.584;7.032;2023-04-01T12:29:44;3.50;;;0.40;;
6101;SDS011;3081;50.584;7.032;2023-04-01T12:32:23;3.30;;;0.40;;
6101;SDS011;3081;50.584;7.032;2023-04-01T12:35:12;3.70;;;0.50;;
6101;SDS011;3081;50.584;7.032;2023-04-01T12:37:50;4.10;;;0.50;;
6101;SDS011;3081;50.584;7.032;2023-04-01T12:40:31;4.40;;;0.60;;
6101;SDS011;3081;50.584;7.032;2023-04-01T12:43:17;4.70;;;0.87;;
6101;SDS011;3081;50.584;7.032;2023-04-01T12:46:00;4.00;;;0.50;;
6101;SDS011;3081;50.584;7.032;2023-04-01T12:48:44;4.40;;;0.53;;
6101;SDS011;3081;50.584;7.032;2023-04-01T12:51:30;4.50;;;0.50;;
6101;SDS011;3081;50.584;7.032;2023-04-01T12:54:23;4.70;;;0.50;;
6101;SDS011;3081;50.584;7.032;2023-04-01T12:57:16;4.70;;;0.60;;
6101;SDS011;3081;50.584;7.032;2023-04-01T13:00:03;4.63;;;0.50;;
6101;SDS011;3081;50.584;7.032;2023-04-01T13:02:40;4.50;;;0.60;;
6101;SDS011;3081;50.584;7.032;2023-04-01T13:05:31;4.23;;;0.50;;
6101;SDS011;3081;50.584;7.032;2023-04-01T13:08:21;4.50;;;0.60;;
6101;SDS011;3081;50.584;7.032;2023-04-01T13:11:13;4.40;;;0.60;;
6101;SDS011;3081;50.584;7.032;2023-04-01T13:16:46;4.33;;;0.70;;
6101;SDS011;3081;50.584;7.032;2023-04-01T13:19:19;6.10;;;1.17;;
6101;SDS011;3081;50.584;7.032;2023-04-01T13:21:53;4.10;;;0.60;;
6101;SDS011;3081;50.584;7.032;2023-04-01T13:24:30;4.10;;;0.60;;
6101;SDS011;3081;50.584;7.032;2023-04-01T13:27:06;5.70;;;1.60;;
6101;SDS011;3081;50.584;7.032;2023-04-01T13:29:41;3.63;;;0.50;;
6101;SDS011;3081;50.584;7.032;2023-04-01T13:32:15;3.50;;;0.60;;
6101;SDS011;3081;50.584;7.032;2023-04-01T13:34:51;4.67;;;0.70;;
6101;SDS011;3081;50.584;7.032;2023-04-01T13:37:30;5.90;;;0.80;;
6101;SDS011;3081;50.584;7.032;2023-04-01T13:40:16;3.57;;;0.50;;
6101;SDS011;3081;50.584;7.032;2023-04-01T13:42:51;4.00;;;0.60;;
6101;SDS011;3081;50.584;7.032;2023-04-01T13:45:23;5.10;;;0.60;;
6101;SDS011;3081;50.584;7.032;2023-04-01T13:50:57;5.80;;;0.77;;
6101;SDS011;3081;50.584;7.032;2023-04-01T13:53:45;5.60;;;0.60;;
6101;SDS011;3081;50.584;7.032;2023-04-01T13:56:40;5.37;;;0.50;;
6101;SDS011;3081;50.584;7.032;2023-04-01T13:59:23;5.40;;;0.50;;
6101;SDS011;3081;50.584;7.032;2023-04-01T14:02:19;5.43;;;0.53;;
6101;SDS011;3081;50.584;7.032;2023-04-01T14:05:15;7.10;;;0.70;;
6101;SDS011;3081;50.584;7.032;2023-04-01T14:07:57;5.97;;;0.50;;
6101;SDS011;3081;50.584;7.032;2023-04-01T14:10:31;6.37;;;0.60;;
6101;SDS011;3081;50.584;7.032;2023-04-01T14:13:09;6.47;;;0.60;;
6101;SDS011;3081;50.584;7.032;2023-04-01T14:18:45;6.37;;;0.63;;
6101;SDS011;3081;50.584;7.032;2023-04-01T14:21:27;6.30;;;0.60;;
6101;SDS011;3081;50.584;7.032;2023-04-01T14:24:06;6.30;;;0.63;;
6101;SDS011;3081;50.584;7.032;2023-04-01T14:26:54;9.37;;;0.80;;
6101;SDS011;3081;50.584;7.032;2023-04-01T14:29:53;6.33;;;0.70;;
6101;SDS011;3081;50.584;7.032;2023-04-01T14:32:39;6.30;;;0.70;;
6101;SDS011;3081;50.584;7.032;2023-04-01T14:35:18;6.13;;;0.50;;
6101;SDS011;3081;50.584;7.032;2023-04-01T14:40:55;6.40;;;0.70;;
6101;SDS011;3081;50.584;7.032;2023-04-01T14:43:31;6.60;;;1.07;;
6101;SDS011;3081;50.584;7.032;2023-04-01T14:49:32;6.03;;;0.60;;
6101;SDS011;3081;50.584;7.032;2023-04-01T14:52:05;6.13;;;0.60;;
6101;SDS011;3081;50.584;7.032;2023-04-01T14:54:40;5.90;;;0.60;;
6101;SDS011;3081;50.584;7.032;2023-04-01T14:57:10;6.10;;;0.70;;
6101;SDS011;3081;50.584;7.032;2023-04-01T14:59:45;6.30;;;0.70;;
6101;SDS011;3081;50.584;7.032;2023-04-01T15:05:16;6.00;;;0.63;;
6101;SDS011;3081;50.584;7.032;2023-04-01T15:10:43;5.97;;;0.50;;
6101;SDS011;3081;50.584;7.032;2023-04-01T15:16:21;5.90;;;0.60;;
6101;SDS011;3081;50.584;7.032;2023-04-01T15:18:56;6.00;;;0.73;;
6101;SDS011;3081;50.584;7.032;2023-04-01T15:21:36;5.90;;;0.63;;
6101;SDS011;3081;50.584;7.032;2023-04-01T15:24:19;5.97;;;0.60;;
6101;SDS011;3081;50.584;7.032;2023-04-01T15:27:02;5.93;;;0.80;;
6101;SDS011;3081;50.584;7.032;2023-04-01T15:29:45;7.10;;;1.50;;
6101;SDS011;3081;50.584;7.032;2023-04-01T15:32:38;6.00;;;0.90;;
6101;SDS011;3081;50.584;7.032;2023-04-01T15:35:17;5.33;;;0.70;;
6101;SDS011;3081;50.584;7.032;2023-04-01T15:37:53;4.70;;;0.80;;
6101;SDS011;3081;50.584;7.032;2023-04-01T15:40:23;4.07;;;0.63;;
6101;SDS011;3081;50.584;7.032;2023-04-01T15:42:56;3.27;;;0.50;;
6101;SDS011;3081;50.584;7.032;2023-04-01T15:45:39;3.80;;;0.80;;
6101;SDS011;3081;50.584;7.032;2023-04-01T15:48:18;2.60;;;0.50;;
6101;SDS011;3081;50.584;7.032;2023-04-01T15:50:54;2.60;;;0.53;;
6101;SDS011;3081;50.584;7.032;2023-04-01T15:56:41;3.00;;;0.60;;
6101;SDS011;3081;50.584;7.032;2023-04-01T15:59:18;2.20;;;0.60;;
6101;SDS011;3081;50.584;7.032;2023-04-01T16:01:56;2.80;;;0.70;;
6101;SDS011;3081;50.584;7.032;2023-04-01T16:04:37;2.20;;;0.50;;
6101;SDS011;3081;50.584;7.032;2023-04-01T16:07:18;2.30;;;0.63;;
6101;SDS011;3081;50.584;7.032;2023-04-01T16:12:59;2.50;;;0.60;;
6101;SDS011;3081;50.584;7.032;2023-04-01T16:15:39;3.10;;;0.60;;
6101;SDS011;3081;50.584;7.032;2023-04-01T16:18:17;2.73;;;0.57;;
6101;SDS011;3081;50.584;7.032;2023-04-01T16:21:08;2.40;;;0.60;;
6101;SDS011;3081;50.584;7.032;2023-04-01T16:23:47;2.97;;;0.50;;
6101;SDS011;3081;50.584;7.032;2023-04-01T16:26:18;4.03;;;0.60;;
6101;SDS011;3081;50.584;7.032;2023-04-01T16:28:55;2.30;;;0.70;;
6101;SDS011;3081;50.584;7.032;2023-04-01T16:31:31;2.30;;;0.70;;
6101;SDS011;3081;50.584;7.032;2023-04-01T16:34:03;2.40;;;0.97;;
6101;SDS011;3081;50.584;7.032;2023-04-01T16:36:36;4.43;;;1.00;;
6101;SDS011;3081;50.584;7.032;2023-04-01T16:39:13;2.50;;;1.00;;
6101;SDS011;3081;50.584;7.032;2023-04-01T16:42:07;2.53;;;1.10;;
6101;SDS011;3081;50.584;7.032;2023-04-01T16:44:46;2.17;;;0.90;;
6101;SDS011;3081;50.584;7.032;2023-04-01T16:47:19;2.30;;;0.63;;
6101;SDS011;3081;50.584;7.032;2023-04-01T16:49:50;2.10;;;0.63;;
6101;SDS011;3081;50.584;7.032;2023-04-01T16:52:29;2.43;;;0.80;;
6101;SDS011;3081;50.584;7.032;2023-04-01T16:55:01;1.90;;;0.70;;
6101;SDS011;3081;50.584;7.032;2023-04-01T16:57:43;1.60;;;0.57;;
6101;SDS011;3081;50.584;7.032;2023-04-01T17:00:17;1.67;;;0.53;;
6101;SDS011;3081;50.584;7.032;2023-04-01T17:02:52;4.22;;;1.90;;
6101;SDS011;3081;50.584;7.032;2023-04-01T17:08:25;1.83;;;0.70;;
6101;SDS011;3081;50.584;7.032;2023-04-01T17:11:06;1.90;;;0.60;;
6101;SDS011;3081;50.584;7.032;2023-04-01T17:13:45;1.60;;;0.50;;
6101;SDS011;3081;50.584;7.032;2023-04-01T17:19:14;2.90;;;0.80;;
6101;SDS011;3081;50.584;7.032;2023-04-01T17:21:54;1.80;;;0.80;;
6101;SDS011;3081;50.584;7.032;2023-04-01T17:24:31;4.10;;;0.77;;
6101;SDS011;3081;50.584;7.032;2023-04-01T17:27:08;1.70;;;0.63;;
6101;SDS011;3081;50.584;7.032;2023-04-01T17:29:56;2.00;;;0.83;;
6101;SDS011;3081;50.584;7.032;2023-04-01T17:32:39;1.90;;;0.87;;
6101;SDS011;3081;50.584;7.032;2023-04-01T17:35:22;6.93;;;3.57;;
6101;SDS011;3081;50.584;7.032;2023-04-01T17:37:55;2.57;;;1.20;;
6101;SDS011;3081;50.584;7.032;2023-04-01T17:40:36;1.73;;;0.80;;
6101;SDS011;3081;50.584;7.032;2023-04-01T17:43:10;2.60;;;0.80;;
6101;SDS011;3081;50.584;7.032;2023-04-01T17:45:48;1.50;;;0.50;;
6101;SDS011;3081;50.584;7.032;2023-04-01T17:48:23;10.63;;;6.23;;